createdAt,value
2023-02-27T00:00:36.590Z,1.98
2023-02-27T00:01:39.632Z,2.28
2023-02-27T00:02:48.422Z,2.00
2023-02-27T00:03:51.609Z,2.53
2023-02-27T00:04:54.867Z,2.33
2023-02-27T00:05:58.088Z,2.30
2023-02-27T00:07:01.234Z,2.33
2023-02-27T00:08:04.647Z,2.45
2023-02-27T00:09:08.653Z,2.53
2023-02-27T00:10:14.068Z,2.17
2023-02-27T00:11:17.019Z,2.42
2023-02-27T00:12:20.344Z,2.35
2023-02-27T00:13:23.440Z,2.40
2023-02-27T00:14:26.713Z,2.37
2023-02-27T00:15:32.356Z,2.55
2023-02-27T00:16:35.383Z,3.03
2023-02-27T00:17:38.855Z,2.45
2023-02-27T00:18:41.963Z,2.45
2023-02-27T00:19:45.082Z,2.33
2023-02-27T00:20:48.855Z,1.95
2023-02-27T00:21:51.829Z,2.45
2023-02-27T00:22:55.087Z,2.17
2023-02-27T00:23:58.460Z,2.33
2023-02-27T00:25:01.526Z,2.17
2023-02-27T00:26:04.715Z,2.22
2023-02-27T00:27:07.882Z,2.35
2023-02-27T00:28:10.969Z,2.65
2023-02-27T00:29:13.935Z,2.50
2023-02-27T00:30:17.206Z,2.40
2023-02-27T00:31:20.206Z,2.47
2023-02-27T00:32:23.505Z,2.75
2023-02-27T00:33:26.644Z,2.40
2023-02-27T00:34:29.722Z,2.22
2023-02-27T00:35:32.733Z,2.60
2023-02-27T00:36:35.685Z,2.72
2023-02-27T00:37:39.719Z,2.05
2023-02-27T00:38:44.771Z,2.25
2023-02-27T00:39:47.712Z,2.25
2023-02-27T00:40:50.737Z,2.17
2023-02-27T00:41:53.648Z,2.60
2023-02-27T00:42:56.669Z,2.28
2023-02-27T00:43:59.648Z,2.70
2023-02-27T00:45:04.193Z,2.30
2023-02-27T00:46:07.264Z,2.60
2023-02-27T00:47:10.558Z,2.53
2023-02-27T00:48:13.957Z,2.65
2023-02-27T00:49:17.160Z,2.87
2023-02-27T00:50:20.379Z,2.35
2023-02-27T00:51:23.421Z,2.25
2023-02-27T00:52:27.074Z,2.65
2023-02-27T00:53:30.109Z,2.65
2023-02-27T00:54:33.144Z,3.40
2023-02-27T00:55:36.144Z,1.85
2023-02-27T00:56:39.250Z,2.90
2023-02-27T00:57:42.489Z,2.78
2023-02-27T00:58:45.988Z,2.65
2023-02-27T00:59:48.957Z,2.87
2023-02-27T01:00:52.536Z,2.22
2023-02-27T01:01:55.968Z,2.60
2023-02-27T01:02:59.196Z,2.47
2023-02-27T01:04:02.674Z,2.55
2023-02-27T01:05:06.077Z,2.70
2023-02-27T01:06:09.303Z,2.47
2023-02-27T01:07:12.252Z,2.90
2023-02-27T01:08:16.635Z,3.33
2023-02-27T01:09:19.698Z,2.72
2023-02-27T01:10:22.618Z,2.60
2023-02-27T01:11:25.889Z,2.55
2023-02-27T01:12:29.035Z,1.73
2023-02-27T01:13:32.048Z,2.70
2023-02-27T01:14:35.165Z,2.92
2023-02-27T01:15:38.612Z,2.75
2023-02-27T01:16:41.664Z,2.58
2023-02-27T01:17:44.872Z,2.67
2023-02-27T01:18:47.994Z,3.08
2023-02-27T01:19:51.025Z,2.42
2023-02-27T01:20:55.354Z,2.42
2023-02-27T01:21:58.342Z,2.50
2023-02-27T01:23:01.272Z,2.50
2023-02-27T01:24:04.385Z,2.67
2023-02-27T01:25:08.296Z,2.17
2023-02-27T01:26:11.281Z,2.28
2023-02-27T01:27:14.209Z,2.50
2023-02-27T01:28:17.673Z,2.30
2023-02-27T01:29:21.145Z,2.45
2023-02-27T01:30:24.147Z,2.50
2023-02-27T01:31:27.566Z,2.47
2023-02-27T01:32:30.860Z,2.75
2023-02-27T01:33:34.200Z,2.30
2023-02-27T01:34:37.267Z,2.42
2023-02-27T01:35:40.377Z,2.42
2023-02-27T01:36:43.542Z,2.25
2023-02-27T01:37:46.468Z,2.00
2023-02-27T01:38:49.457Z,2.50
2023-02-27T01:39:52.490Z,2.35
2023-02-27T01:40:56.475Z,2.17
2023-02-27T01:42:00.091Z,2.28
2023-02-27T01:43:03.443Z,2.50
2023-02-27T01:44:09.471Z,2.83
2023-02-27T01:45:12.589Z,2.67
2023-02-27T01:46:15.538Z,2.42
2023-02-27T01:47:18.745Z,2.42
2023-02-27T01:48:40.040Z,2.30
2023-02-27T01:49:43.358Z,2.25
2023-02-27T01:51:04.478Z,2.20
2023-02-27T01:52:11.393Z,2.25
2023-02-27T01:53:15.048Z,2.20
2023-02-27T01:54:22.438Z,2.05
2023-02-27T01:55:27.668Z,1.95
2023-02-27T01:56:32.365Z,2.30
2023-02-27T01:57:38.445Z,2.40
2023-02-27T01:58:43.615Z,2.03
2023-02-27T01:59:46.677Z,2.30
2023-02-27T02:00:50.068Z,1.58
2023-02-27T02:01:53.689Z,1.98
2023-02-27T02:03:12.083Z,2.33
2023-02-27T02:04:39.885Z,2.60
2023-02-27T02:05:45.074Z,2.00
2023-02-27T02:06:54.466Z,2.33
2023-02-27T02:07:58.724Z,1.77
2023-02-27T02:09:03.102Z,1.50
2023-02-27T02:10:08.111Z,2.33
2023-02-27T02:11:12.747Z,2.08
2023-02-27T02:12:19.051Z,2.50
2023-02-27T02:13:22.795Z,1.98
2023-02-27T02:14:25.780Z,2.72
2023-02-27T02:15:37.789Z,2.05
2023-02-27T02:17:00.897Z,2.33
2023-02-27T02:18:22.750Z,2.40
2023-02-27T02:19:40.742Z,1.60
2023-02-27T02:21:12.987Z,2.55
2023-02-27T02:22:53.226Z,2.08
2023-02-27T02:24:33.746Z,1.87
2023-02-27T02:26:01.431Z,2.33
2023-02-27T02:27:30.826Z,2.10
2023-02-27T02:29:14.752Z,1.85
2023-02-27T02:31:06.055Z,1.67
2023-02-27T02:32:21.965Z,2.33
2023-02-27T02:33:55.792Z,1.45
2023-02-27T02:35:23.029Z,1.87
2023-02-27T02:36:53.981Z,2.10
2023-02-27T02:38:06.237Z,2.00
2023-02-27T02:39:22.596Z,2.05
2023-02-27T02:40:36.108Z,2.53
2023-02-27T02:41:54.094Z,2.10
2023-02-27T02:43:06.712Z,2.20
2023-02-27T02:44:24.686Z,2.03
2023-02-27T02:45:40.374Z,1.52
2023-02-27T02:46:47.733Z,2.47
2023-02-27T02:48:02.275Z,2.22
2023-02-27T02:49:20.203Z,2.05
2023-02-27T02:50:40.153Z,2.00
2023-02-27T02:52:11.024Z,1.75
2023-02-27T02:53:37.186Z,2.08
2023-02-27T02:54:55.144Z,1.27
2023-02-27T02:56:05.674Z,2.10
2023-02-27T02:57:24.399Z,2.13
2023-02-27T02:58:29.910Z,2.10
2023-02-27T02:59:56.298Z,2.12
2023-02-27T03:01:10.438Z,1.75
2023-02-27T03:02:18.980Z,2.08
2023-02-27T03:03:28.430Z,2.37
2023-02-27T03:04:42.583Z,2.28
2023-02-27T03:05:56.860Z,1.73
2023-02-27T03:07:21.867Z,2.40
2023-02-27T03:08:31.466Z,1.98
2023-02-27T03:09:49.534Z,2.30
2023-02-27T03:11:06.506Z,2.53
2023-02-27T03:12:13.446Z,2.28
2023-02-27T03:13:49.195Z,2.30
2023-02-27T03:15:17.538Z,2.22
2023-02-27T03:16:20.467Z,1.95
2023-02-27T03:17:48.849Z,1.83
2023-02-27T03:19:06.588Z,2.42
2023-02-27T03:20:15.571Z,1.87
2023-02-27T03:21:30.361Z,2.37
2023-02-27T03:22:38.816Z,2.50
2023-02-27T03:23:48.008Z,2.10
2023-02-27T03:24:57.938Z,2.17
2023-02-27T03:26:01.352Z,1.98
2023-02-27T03:27:08.476Z,1.90
2023-02-27T03:28:19.605Z,1.70
2023-02-27T03:29:30.552Z,2.10
2023-02-27T03:30:36.105Z,2.15
2023-02-27T03:31:42.339Z,1.95
2023-02-27T03:33:11.510Z,2.12
2023-02-27T03:34:19.616Z,2.30
2023-02-27T03:35:26.746Z,1.62
2023-02-27T03:36:59.111Z,1.92
2023-02-27T03:38:18.823Z,2.10
2023-02-27T03:39:44.743Z,1.62
2023-02-27T03:41:09.498Z,2.12
2023-02-27T03:42:34.256Z,1.87
2023-02-27T03:43:54.337Z,2.55
2023-02-27T03:45:25.096Z,1.90
2023-02-27T03:46:28.827Z,1.80
2023-02-27T03:47:34.713Z,2.00
2023-02-27T03:48:38.749Z,2.22
2023-02-27T03:49:41.790Z,1.90
2023-02-27T03:50:45.323Z,2.22
2023-02-27T03:51:48.467Z,1.95
2023-02-27T03:52:51.598Z,2.20
2023-02-27T03:54:10.045Z,1.92
2023-02-27T03:55:18.714Z,2.00
2023-02-27T03:56:27.664Z,2.10
2023-02-27T03:57:32.365Z,1.75
2023-02-27T03:58:36.626Z,1.75
2023-02-27T03:59:39.939Z,2.15
2023-02-27T04:00:43.746Z,1.77
2023-02-27T04:01:46.921Z,2.20
2023-02-27T04:02:53.058Z,1.73
2023-02-27T04:04:06.059Z,1.55
2023-02-27T04:05:09.362Z,1.70
2023-02-27T04:06:30.761Z,1.60
2023-02-27T04:07:54.512Z,1.90
2023-02-27T04:09:22.777Z,2.05
2023-02-27T04:10:31.750Z,1.90
2023-02-27T04:11:40.779Z,1.80
2023-02-27T04:13:17.619Z,1.92
2023-02-27T04:14:31.142Z,1.70
2023-02-27T04:16:06.426Z,1.80
2023-02-27T04:17:28.959Z,1.90
2023-02-27T04:19:04.902Z,2.03
2023-02-27T04:20:08.258Z,1.95
2023-02-27T04:21:29.840Z,1.35
2023-02-27T04:22:47.587Z,2.08
2023-02-27T04:23:57.598Z,1.95
2023-02-27T04:25:06.756Z,1.92
2023-02-27T04:26:28.259Z,2.00
2023-02-27T04:27:46.778Z,2.10
2023-02-27T04:29:05.984Z,1.70
2023-02-27T04:30:38.558Z,1.42
2023-02-27T04:32:14.077Z,1.42
2023-02-27T04:33:53.026Z,1.60
2023-02-27T04:35:06.496Z,1.60
2023-02-27T04:36:17.451Z,1.62
2023-02-27T04:37:31.209Z,1.85
2023-02-27T04:38:42.799Z,1.70
2023-02-27T04:40:05.726Z,1.50
2023-02-27T04:41:15.336Z,1.48
2023-02-27T04:42:29.481Z,1.40
2023-02-27T04:43:35.866Z,1.45
2023-02-27T04:44:40.380Z,1.42
2023-02-27T04:45:47.211Z,1.33
2023-02-27T04:46:54.622Z,1.60
2023-02-27T04:48:03.663Z,1.70
2023-02-27T04:49:15.992Z,1.35
2023-02-27T04:50:30.151Z,1.40
2023-02-27T04:51:39.825Z,1.83
2023-02-27T04:52:50.551Z,1.48
2023-02-27T04:54:14.191Z,1.80
2023-02-27T04:55:36.272Z,1.85
2023-02-27T04:57:53.865Z,1.55
2023-02-27T04:59:08.822Z,1.60
2023-02-27T05:00:14.673Z,1.45
2023-02-27T05:01:25.466Z,1.52
2023-02-27T05:02:38.428Z,1.58
2023-02-27T05:03:47.833Z,1.67
2023-02-27T05:04:54.384Z,1.58
2023-02-27T05:06:00.785Z,1.50
2023-02-27T05:07:06.342Z,1.50
2023-02-27T05:08:17.035Z,1.62
2023-02-27T05:09:37.180Z,2.00
2023-02-27T05:10:49.652Z,1.70
2023-02-27T05:12:24.061Z,1.87
2023-02-27T05:13:33.947Z,1.55
2023-02-27T05:14:46.750Z,1.62
2023-02-27T05:15:56.658Z,1.92
2023-02-27T05:17:37.930Z,2.05
2023-02-27T05:18:41.331Z,1.55
2023-02-27T05:19:45.573Z,1.85
2023-02-27T05:21:09.452Z,1.70
2023-02-27T05:22:36.675Z,1.95
2023-02-27T05:23:44.171Z,1.98
2023-02-27T05:25:16.138Z,1.55
2023-02-27T05:26:37.900Z,1.30
2023-02-27T05:27:53.263Z,1.80
2023-02-27T05:29:10.009Z,1.40
2023-02-27T05:30:49.743Z,1.87
2023-02-27T05:32:24.792Z,1.27
2023-02-27T05:33:33.266Z,1.80
2023-02-27T05:34:48.019Z,1.75
2023-02-27T05:36:11.004Z,1.58
2023-02-27T05:37:35.837Z,1.65
2023-02-27T05:39:01.256Z,1.52
2023-02-27T05:40:08.664Z,1.20
2023-02-27T05:41:26.339Z,1.40
2023-02-27T05:42:36.146Z,2.15
2023-02-27T05:43:47.566Z,1.67
2023-02-27T05:44:56.028Z,1.65
2023-02-27T05:46:05.567Z,1.87
2023-02-27T05:47:17.728Z,1.42
2023-02-27T05:48:29.201Z,1.30
2023-02-27T05:49:48.761Z,1.55
2023-02-27T05:50:53.953Z,1.40
2023-02-27T05:51:59.736Z,1.40
2023-02-27T05:53:10.032Z,1.50
2023-02-27T05:54:41.845Z,1.45
2023-02-27T05:55:49.496Z,1.25
2023-02-27T05:56:55.031Z,1.87
2023-02-27T05:58:09.017Z,1.58
2023-02-27T05:59:22.823Z,1.25
2023-02-27T06:00:35.835Z,1.27
2023-02-27T06:01:39.608Z,1.67
2023-02-27T06:02:45.345Z,1.30
2023-02-27T06:03:48.426Z,1.65
2023-02-27T06:04:51.553Z,1.33
2023-02-27T06:05:57.727Z,1.30
2023-02-27T06:07:01.106Z,1.30
2023-02-27T06:08:04.365Z,1.30
2023-02-27T06:09:08.099Z,1.42
2023-02-27T06:10:20.149Z,1.70
2023-02-27T06:11:23.140Z,1.10
2023-02-27T06:12:25.953Z,1.10
2023-02-27T06:13:29.184Z,1.75
2023-02-27T06:14:32.063Z,1.42
2023-02-27T06:15:34.992Z,1.20
2023-02-27T06:16:39.381Z,1.30
2023-02-27T06:17:42.376Z,1.20
2023-02-27T06:18:45.651Z,1.33
2023-02-27T06:19:48.804Z,1.37
2023-02-27T06:20:52.123Z,1.48
2023-02-27T06:21:55.218Z,1.40
2023-02-27T06:22:58.173Z,1.75
2023-02-27T06:24:01.178Z,1.73
2023-02-27T06:25:04.612Z,1.50
2023-02-27T06:26:07.624Z,1.70
2023-02-27T06:27:10.670Z,1.23
2023-02-27T06:28:13.694Z,1.42
2023-02-27T06:29:17.767Z,1.62
2023-02-27T06:30:21.107Z,1.45
2023-02-27T06:31:24.047Z,1.50
2023-02-27T06:32:27.255Z,1.48
2023-02-27T06:33:30.240Z,1.40
2023-02-27T06:34:33.218Z,1.52
2023-02-27T06:35:36.459Z,1.83
2023-02-27T06:36:40.028Z,1.50
2023-02-27T06:37:43.226Z,1.10
2023-02-27T06:38:46.280Z,1.45
2023-02-27T06:39:49.317Z,1.20
2023-02-27T06:40:52.553Z,1.52
2023-02-27T06:41:55.431Z,1.30
2023-02-27T06:42:58.428Z,1.50
2023-02-27T06:44:01.352Z,1.37
2023-02-27T06:45:04.715Z,1.55
2023-02-27T06:46:07.825Z,1.65
2023-02-27T06:47:11.101Z,1.20
2023-02-27T06:48:15.176Z,1.42
2023-02-27T06:49:19.174Z,1.17
2023-02-27T06:50:22.656Z,1.33
2023-02-27T06:51:25.694Z,1.40
2023-02-27T06:52:28.896Z,1.70
2023-02-27T06:53:31.817Z,1.30
2023-02-27T06:54:34.908Z,1.30
2023-02-27T06:55:38.618Z,1.20
2023-02-27T06:56:41.706Z,1.62
2023-02-27T06:57:44.686Z,1.15
2023-02-27T06:58:47.755Z,1.35
2023-02-27T06:59:50.909Z,1.00
2023-02-27T07:00:54.021Z,1.20
2023-02-27T07:01:59.185Z,1.23
2023-02-27T07:03:05.094Z,1.37
2023-02-27T07:04:13.566Z,0.90
2023-02-27T07:05:16.813Z,1.40
2023-02-27T07:06:20.122Z,1.17
2023-02-27T07:07:35.711Z,1.37
2023-02-27T07:09:01.491Z,1.20
2023-02-27T07:10:05.963Z,1.55
2023-02-27T07:11:09.687Z,1.20
2023-02-27T07:12:12.958Z,1.23
2023-02-27T07:13:19.510Z,1.15
2023-02-27T07:14:22.894Z,1.10
2023-02-27T07:15:25.922Z,1.00
2023-02-27T07:16:29.178Z,1.27
2023-02-27T07:17:32.413Z,1.00
2023-02-27T07:18:35.856Z,1.17
2023-02-27T07:19:39.431Z,1.40
2023-02-27T07:20:43.066Z,1.12
2023-02-27T07:21:46.337Z,1.02
2023-02-27T07:22:49.512Z,0.93
2023-02-27T07:23:52.946Z,1.37
2023-02-27T07:24:56.093Z,1.40
2023-02-27T07:25:59.072Z,1.40
2023-02-27T07:27:02.012Z,1.58
2023-02-27T07:28:05.446Z,1.25
2023-02-27T07:29:11.553Z,1.33
2023-02-27T07:30:14.764Z,1.40
2023-02-27T07:31:18.112Z,1.35
2023-02-27T07:32:21.602Z,1.05
2023-02-27T07:33:24.829Z,1.48
2023-02-27T07:34:27.963Z,1.10
2023-02-27T07:35:31.227Z,1.08
2023-02-27T07:36:34.550Z,1.67
2023-02-27T07:37:38.188Z,0.95
2023-02-27T07:38:41.151Z,1.15
2023-02-27T07:39:45.272Z,1.00
2023-02-27T07:40:48.664Z,1.17
2023-02-27T07:41:51.822Z,1.10
2023-02-27T07:42:55.199Z,1.23
2023-02-27T07:43:58.786Z,1.65
2023-02-27T07:45:01.953Z,1.37
2023-02-27T07:46:05.213Z,1.40
2023-02-27T07:47:08.481Z,1.33
2023-02-27T07:48:11.609Z,1.10
2023-02-27T07:49:14.868Z,1.17
2023-02-27T07:50:17.902Z,1.00
2023-02-27T07:51:21.253Z,1.40
2023-02-27T07:52:24.887Z,1.40
2023-02-27T07:53:28.225Z,1.55
2023-02-27T07:54:31.835Z,1.25
2023-02-27T07:55:37.144Z,1.30
2023-02-27T07:56:40.194Z,1.45
2023-02-27T07:57:45.305Z,1.15
2023-02-27T07:58:48.294Z,1.37
2023-02-27T07:59:51.690Z,1.30
2023-02-27T08:00:55.222Z,1.35
2023-02-27T08:01:58.296Z,1.15
2023-02-27T08:03:01.443Z,0.82
2023-02-27T08:04:04.657Z,0.90
2023-02-27T08:05:08.366Z,1.20
2023-02-27T08:06:11.565Z,0.88
2023-02-27T08:07:14.717Z,1.70
2023-02-27T08:08:17.987Z,1.33
2023-02-27T08:09:21.291Z,1.20
2023-02-27T08:10:24.717Z,1.20
2023-02-27T08:11:28.208Z,1.00
2023-02-27T08:12:31.439Z,1.20
2023-02-27T08:14:57.516Z,0.90
2023-02-27T08:16:00.810Z,1.30
2023-02-27T08:17:03.702Z,1.83
2023-02-27T08:18:06.836Z,1.23
2023-02-27T08:19:10.031Z,1.23
2023-02-27T08:20:14.521Z,1.48
2023-02-27T08:21:17.672Z,1.10
2023-02-27T08:22:21.080Z,1.45
2023-02-27T08:23:24.128Z,1.80
2023-02-27T08:24:27.651Z,1.20
2023-02-27T08:25:30.666Z,1.60
2023-02-27T08:26:34.034Z,1.37
2023-02-27T08:27:37.904Z,1.60
2023-02-27T08:28:41.473Z,1.10
2023-02-27T08:29:45.879Z,1.00
2023-02-27T08:30:52.135Z,1.30
2023-02-27T08:31:55.298Z,1.20
2023-02-27T08:32:58.478Z,1.67
2023-02-27T08:34:09.929Z,1.50
2023-02-27T08:35:13.914Z,1.55
2023-02-27T08:36:17.264Z,1.25
2023-02-27T08:37:20.679Z,1.17
2023-02-27T08:38:26.051Z,1.52
2023-02-27T08:39:29.583Z,1.67
2023-02-27T08:40:32.920Z,1.50
2023-02-27T08:41:36.167Z,1.40
2023-02-27T08:42:39.513Z,1.30
2023-02-27T08:43:42.527Z,1.48
2023-02-27T08:44:45.610Z,1.40
2023-02-27T08:45:49.907Z,1.95
2023-02-27T08:46:53.000Z,1.70
2023-02-27T08:47:55.999Z,1.55
2023-02-27T08:48:59.266Z,1.70
2023-02-27T08:50:02.315Z,1.45
2023-02-27T08:51:05.393Z,1.73
2023-02-27T08:52:10.113Z,1.80
2023-02-27T08:53:13.368Z,1.75
2023-02-27T08:54:16.332Z,1.40
2023-02-27T08:55:19.328Z,1.83
2023-02-27T08:56:22.253Z,1.90
2023-02-27T08:57:25.792Z,1.73
2023-02-27T08:58:29.007Z,1.37
2023-02-27T08:59:32.663Z,1.65
2023-02-27T09:00:35.797Z,1.70
2023-02-27T09:01:38.875Z,1.73
2023-02-27T09:02:42.929Z,1.50
2023-02-27T09:03:46.157Z,1.52
2023-02-27T09:04:49.061Z,1.42
2023-02-27T09:05:52.005Z,1.67
2023-02-27T09:06:55.114Z,1.90
2023-02-27T09:07:58.059Z,1.77
2023-02-27T09:09:01.560Z,2.20
2023-02-27T09:10:04.749Z,1.70
2023-02-27T09:11:07.959Z,1.67
2023-02-27T09:12:11.188Z,1.83
2023-02-27T09:13:14.758Z,1.75
2023-02-27T09:14:18.113Z,1.80
2023-02-27T09:15:21.077Z,1.85
2023-02-27T09:16:24.398Z,1.80
2023-02-27T09:17:27.616Z,1.80
2023-02-27T09:18:30.882Z,1.80
2023-02-27T09:19:34.192Z,1.80
2023-02-27T09:20:37.330Z,1.70
2023-02-27T09:21:40.876Z,1.60
2023-02-27T09:22:44.433Z,1.75
2023-02-27T09:23:47.409Z,1.75
2023-02-27T09:24:50.646Z,1.40
2023-02-27T09:25:53.528Z,1.50
2023-02-27T09:26:56.454Z,1.62
2023-02-27T09:27:59.784Z,1.85
2023-02-27T09:29:02.862Z,1.48
2023-02-27T09:30:06.462Z,1.80
2023-02-27T09:31:11.244Z,1.73
2023-02-27T09:32:14.346Z,1.90
2023-02-27T09:33:17.583Z,1.98
2023-02-27T09:34:20.771Z,2.08
2023-02-27T09:35:23.754Z,2.03
2023-02-27T09:36:27.148Z,2.33
2023-02-27T09:37:30.272Z,1.80
2023-02-27T09:38:35.980Z,1.83
2023-02-27T09:39:39.188Z,1.95
2023-02-27T09:40:50.344Z,1.85
2023-02-27T09:42:11.900Z,1.83
2023-02-27T09:43:19.739Z,2.17
2023-02-27T09:44:46.252Z,1.85
2023-02-27T09:45:56.374Z,2.12
2023-02-27T09:46:59.569Z,2.12
2023-02-27T09:48:07.279Z,1.98
2023-02-27T09:49:16.407Z,3.50
2023-02-27T09:50:38.151Z,2.00
2023-02-27T09:51:41.318Z,1.62
2023-02-27T09:52:45.438Z,1.95
2023-02-27T09:53:51.958Z,2.22
2023-02-27T09:54:55.673Z,2.10
2023-02-27T09:56:15.745Z,2.00
2023-02-27T09:57:42.123Z,2.42
2023-02-27T09:59:03.819Z,1.95
2023-02-27T10:00:35.515Z,1.95
2023-02-27T10:01:48.447Z,2.03
2023-02-27T10:03:09.714Z,2.10
2023-02-27T10:04:21.841Z,2.55
2023-02-27T10:05:46.541Z,2.30
2023-02-27T10:07:13.306Z,2.25
2023-02-27T10:08:37.418Z,2.03
2023-02-27T10:10:09.960Z,1.92
2023-02-27T10:11:16.876Z,2.28
2023-02-27T10:12:35.029Z,2.22
2023-02-27T10:14:03.376Z,1.98
2023-02-27T10:15:15.995Z,2.20
2023-02-27T10:16:22.081Z,2.35
2023-02-27T10:17:28.532Z,1.70
2023-02-27T10:18:36.248Z,2.22
2023-02-27T10:19:40.549Z,2.15
2023-02-27T10:20:51.660Z,2.17
2023-02-27T10:21:56.939Z,1.90
2023-02-27T10:23:05.890Z,2.15
2023-02-27T10:24:30.152Z,1.83
2023-02-27T10:25:39.871Z,2.17
2023-02-27T10:26:45.862Z,2.62
2023-02-27T10:27:51.384Z,2.10
2023-02-27T10:28:54.475Z,1.80
2023-02-27T10:30:29.195Z,2.20
2023-02-27T10:31:36.242Z,2.25
2023-02-27T10:32:40.585Z,2.17
2023-02-27T10:33:45.277Z,2.53
2023-02-27T10:35:09.328Z,2.37
2023-02-27T10:36:27.032Z,2.20
2023-02-27T10:37:40.324Z,2.40
2023-02-27T10:38:55.721Z,1.85
2023-02-27T10:40:05.110Z,2.22
2023-02-27T10:41:13.152Z,2.15
2023-02-27T10:42:17.684Z,2.20
2023-02-27T10:43:21.585Z,2.30
2023-02-27T10:44:24.747Z,2.03
2023-02-27T10:45:27.442Z,2.53
2023-02-27T10:46:33.040Z,2.33
2023-02-27T10:47:39.035Z,2.60
2023-02-27T10:48:42.138Z,2.35
2023-02-27T10:49:45.071Z,2.17
2023-02-27T10:50:52.722Z,2.58
2023-02-27T10:52:16.416Z,2.47
2023-02-27T10:53:25.942Z,2.20
2023-02-27T10:54:28.629Z,2.30
2023-02-27T10:55:34.403Z,2.30
2023-02-27T10:56:37.368Z,2.40
2023-02-27T10:57:43.693Z,2.30
2023-02-27T10:58:46.556Z,2.83
2023-02-27T10:59:56.853Z,2.42
2023-02-27T11:01:02.775Z,2.47
2023-02-27T11:02:21.113Z,2.45
2023-02-27T11:03:30.532Z,2.37
2023-02-27T11:04:39.942Z,2.50
2023-02-27T11:05:42.872Z,1.77
2023-02-27T11:06:54.000Z,2.67
2023-02-27T11:08:10.626Z,3.28
2023-02-27T11:09:26.110Z,2.00
2023-02-27T11:10:29.469Z,2.50
2023-02-27T11:11:32.313Z,2.62
2023-02-27T11:12:35.401Z,2.12
2023-02-27T11:13:43.920Z,2.67
2023-02-27T11:15:11.724Z,2.62
2023-02-27T11:16:21.967Z,2.37
2023-02-27T11:17:30.504Z,2.92
2023-02-27T11:18:35.487Z,2.25
2023-02-27T11:19:40.265Z,2.47
2023-02-27T11:20:43.881Z,2.65
2023-02-27T11:22:04.766Z,2.35
2023-02-27T11:23:25.230Z,2.78
2023-02-27T11:24:29.247Z,2.75
2023-02-27T11:25:33.779Z,2.40
2023-02-27T11:26:40.475Z,2.60
2023-02-27T11:27:43.289Z,2.55
2023-02-27T11:28:46.186Z,2.42
2023-02-27T11:30:04.047Z,2.20
2023-02-27T11:31:22.496Z,2.58
2023-02-27T11:32:32.532Z,2.40
2023-02-27T11:33:58.995Z,2.60
2023-02-27T11:35:01.972Z,2.70
2023-02-27T11:36:05.422Z,2.33
2023-02-27T11:37:24.806Z,2.65
2023-02-27T11:38:30.321Z,2.37
2023-02-27T11:40:00.127Z,2.92
2023-02-27T11:41:05.866Z,2.47
2023-02-27T11:42:14.999Z,2.55
2023-02-27T11:43:49.956Z,2.30
2023-02-27T11:46:13.895Z,2.55
2023-02-27T11:46:47.925Z,2.15
2023-02-27T11:47:58.276Z,2.60
2023-02-27T11:49:08.326Z,2.33
2023-02-27T11:50:48.905Z,1.95
2023-02-27T11:52:09.120Z,2.40
2023-02-27T11:53:49.221Z,2.45
2023-02-27T11:54:58.177Z,2.65
2023-02-27T11:56:05.914Z,2.70
2023-02-27T11:57:27.219Z,2.53
2023-02-27T11:58:42.818Z,2.12
2023-02-27T12:00:01.955Z,2.25
2023-02-27T12:01:13.035Z,2.35
2023-02-27T12:02:48.522Z,2.10
2023-02-27T12:04:04.912Z,2.62
2023-02-27T12:05:21.274Z,2.10
2023-02-27T12:06:38.357Z,2.28
2023-02-27T12:07:54.973Z,2.42
2023-02-27T12:09:19.449Z,2.20
2023-02-27T12:10:24.434Z,2.55
2023-02-27T12:11:41.548Z,2.33
2023-02-27T12:12:47.777Z,2.40
2023-02-27T12:13:59.232Z,2.20
2023-02-27T12:15:10.021Z,2.47
2023-02-27T12:16:54.336Z,3.47
2023-02-27T12:18:15.987Z,1.65
2023-02-27T12:19:25.596Z,2.40
2023-02-27T12:20:36.299Z,2.30
2023-02-27T12:21:44.033Z,1.73
2023-02-27T12:22:52.066Z,1.90
2023-02-27T12:24:02.734Z,2.45
2023-02-27T12:25:22.596Z,2.08
2023-02-27T12:26:28.515Z,1.98
2023-02-27T12:27:59.493Z,1.80
2023-02-27T12:29:25.844Z,2.20
2023-02-27T12:30:36.625Z,2.40
2023-02-27T12:31:47.378Z,2.37
2023-02-27T12:33:00.550Z,2.10
2023-02-27T12:34:29.604Z,2.15
2023-02-27T12:35:33.456Z,1.95
2023-02-27T12:36:36.571Z,1.95
2023-02-27T12:37:39.763Z,2.53
2023-02-27T12:38:43.379Z,2.50
2023-02-27T12:39:46.578Z,2.85
2023-02-27T12:41:10.739Z,2.80
2023-02-27T12:42:16.201Z,2.15
2023-02-27T12:43:54.378Z,2.37
2023-02-27T12:45:13.811Z,2.25
2023-02-27T12:46:26.932Z,2.83
2023-02-27T12:47:52.599Z,2.50
2023-02-27T12:49:11.697Z,2.12
2023-02-27T12:50:21.851Z,2.40
2023-02-27T12:51:44.363Z,2.05
2023-02-27T12:53:15.176Z,2.05
2023-02-27T12:54:24.076Z,1.98
2023-02-27T12:55:32.008Z,2.10
2023-02-27T12:57:16.290Z,2.58
2023-02-27T12:58:34.466Z,2.22
2023-02-27T12:59:40.259Z,2.17
2023-02-27T13:00:53.817Z,2.17
2023-02-27T13:02:32.855Z,2.40
2023-02-27T13:03:54.633Z,2.20
2023-02-27T13:05:09.498Z,1.90
2023-02-27T13:06:42.124Z,2.75
2023-02-27T13:08:03.266Z,1.85
2023-02-27T13:09:25.934Z,1.83
2023-02-27T13:10:51.913Z,2.22
2023-02-27T13:12:07.712Z,1.95
2023-02-27T13:13:24.691Z,2.05
2023-02-27T13:14:50.697Z,2.20
2023-02-27T13:16:07.088Z,2.10
2023-02-27T13:17:21.410Z,1.85
2023-02-27T13:18:52.741Z,2.10
2023-02-27T13:20:34.756Z,2.62
2023-02-27T13:21:46.721Z,2.55
2023-02-27T13:23:14.006Z,2.50
2023-02-27T13:24:31.452Z,2.70
2023-02-27T13:25:38.976Z,2.15
2023-02-27T13:26:47.306Z,1.90
2023-02-27T13:27:50.307Z,2.00
2023-02-27T13:28:54.512Z,2.28
2023-02-27T13:30:03.589Z,2.10
2023-02-27T13:31:30.317Z,2.05
2023-02-27T13:32:49.005Z,2.40
2023-02-27T13:34:05.177Z,2.35
2023-02-27T13:35:20.147Z,2.12
2023-02-27T13:36:32.230Z,2.42
2023-02-27T13:37:58.416Z,2.42
2023-02-27T13:39:01.474Z,2.25
2023-02-27T13:40:32.090Z,1.90
2023-02-27T13:41:38.893Z,1.98
2023-02-27T13:42:47.774Z,1.87
2023-02-27T13:44:16.221Z,2.30
2023-02-27T13:45:50.033Z,2.45
2023-02-27T13:46:52.957Z,2.15
2023-02-27T13:47:57.002Z,2.53
2023-02-27T13:49:05.964Z,2.08
2023-02-27T13:50:28.939Z,2.30
2023-02-27T13:51:41.381Z,2.75
2023-02-27T13:52:45.134Z,2.42
2023-02-27T13:53:48.267Z,2.85
2023-02-27T13:54:55.091Z,2.70
2023-02-27T13:56:23.389Z,2.58
2023-02-27T13:57:28.835Z,2.50
2023-02-27T13:58:31.646Z,2.47
2023-02-27T13:59:37.195Z,2.50
2023-02-27T14:00:40.019Z,2.17
2023-02-27T14:01:52.783Z,2.72
2023-02-27T14:03:00.830Z,2.47
2023-02-27T14:04:08.018Z,2.50
2023-02-27T14:05:15.366Z,2.80
2023-02-27T14:06:18.558Z,2.00
2023-02-27T14:07:24.634Z,2.55
2023-02-27T14:08:30.990Z,2.65
2023-02-27T14:09:38.701Z,2.58
2023-02-27T14:10:58.651Z,2.80
2023-02-27T14:12:04.726Z,2.53
2023-02-27T14:13:45.754Z,2.85
2023-02-27T14:14:50.507Z,2.53
2023-02-27T14:15:57.215Z,2.20
2023-02-27T14:17:01.111Z,2.15
2023-02-27T14:18:15.962Z,2.45
2023-02-27T14:19:28.816Z,2.58
2023-02-27T14:20:31.499Z,2.78
2023-02-27T14:21:56.365Z,2.45
2023-02-27T14:23:17.420Z,2.53
2023-02-27T14:24:26.518Z,2.78
2023-02-27T14:25:40.649Z,2.40
2023-02-27T14:26:46.652Z,2.53
2023-02-27T14:27:57.314Z,2.30
2023-02-27T14:29:01.336Z,2.40
2023-02-27T14:30:10.272Z,2.47
2023-02-27T14:31:28.687Z,1.95
2023-02-27T14:32:37.233Z,3.12
2023-02-27T14:33:50.829Z,2.62
2023-02-27T14:34:55.652Z,2.80
2023-02-27T14:36:02.955Z,2.55
2023-02-27T14:37:11.676Z,2.92
2023-02-27T14:38:19.741Z,3.12
2023-02-27T14:39:35.290Z,3.50
2023-02-27T14:40:51.952Z,2.65
2023-02-27T14:42:02.582Z,3.00
2023-02-27T14:43:15.595Z,2.55
2023-02-27T14:44:24.099Z,2.80
2023-02-27T14:45:31.320Z,2.75
2023-02-27T14:46:39.698Z,2.55
2023-02-27T14:47:42.912Z,3.12
2023-02-27T14:48:45.807Z,2.83
2023-02-27T14:49:48.748Z,2.92
2023-02-27T14:50:54.917Z,2.70
2023-02-27T14:52:11.009Z,3.08
2023-02-27T14:53:26.421Z,2.97
2023-02-27T14:54:29.205Z,3.20
2023-02-27T14:55:36.358Z,2.85
2023-02-27T14:56:39.452Z,3.42
2023-02-27T14:57:54.634Z,3.30
2023-02-27T14:59:04.239Z,2.87
2023-02-27T15:00:28.722Z,3.15
2023-02-27T15:01:36.069Z,3.00
2023-02-27T15:02:39.195Z,3.37
2023-02-27T15:03:46.866Z,2.92
2023-02-27T15:05:16.963Z,2.97
2023-02-27T15:06:25.064Z,3.15
2023-02-27T15:07:33.383Z,3.70
2023-02-27T15:08:40.139Z,3.37
2023-02-27T15:09:48.143Z,3.00
2023-02-27T15:10:55.862Z,3.28
2023-02-27T15:12:03.990Z,3.10
2023-02-27T15:13:07.652Z,3.15
2023-02-27T15:14:20.588Z,3.60
2023-02-27T15:15:26.665Z,3.15
2023-02-27T15:16:37.783Z,3.40
2023-02-27T15:17:43.355Z,3.20
2023-02-27T15:19:03.217Z,3.08
2023-02-27T15:20:24.599Z,3.20
2023-02-27T15:21:32.058Z,3.50
2023-02-27T15:22:40.213Z,3.03
2023-02-27T15:23:43.241Z,3.28
2023-02-27T15:24:50.471Z,3.15
2023-02-27T15:25:59.994Z,3.10
2023-02-27T15:27:11.001Z,3.22
2023-02-27T15:28:22.439Z,3.00
2023-02-27T15:29:31.491Z,3.70
2023-02-27T15:30:34.534Z,3.62
2023-02-27T15:31:37.687Z,3.42
2023-02-27T15:32:43.276Z,3.40
2023-02-27T15:33:46.664Z,3.10